Time;durP1;ratioP1;P1;durP2;ratioP2;P2;SDS_P1;SDS_P2;PMS_P1;PMS_P2;Temp;Humidity;BMP_temperature;BMP_pressure;BME280_temperature;BME280_humidity;BME280_pressure;Samples;Min_cycle;Max_cycle;Signal;HPM_P1;HPM_P2
2024/01/25 00:01:29;;;;;;;42.90;19.60;;;8.20;99.90;;;;;;5071316;28;20143;-82
2024/01/25 00:03:55;;;;;;;39.33;19.67;;;8.10;99.90;;;;;;5034836;28;20033;-81
2024/01/25 00:06:21;;;;;;;34.17;18.65;;;8.10;99.90;;;;;;5069864;28;20546;-82
2024/01/25 00:08:47;;;;;;;34.10;18.88;;;8.10;99.90;;;;;;5053031;28;20071;-82
2024/01/25 00:11:12;;;;;;;41.58;20.48;;;8.00;99.90;;;;;;5049344;28;20579;-82
2024/01/25 00:13:38;;;;;;;40.05;28.25;;;7.90;99.90;;;;;;5049439;28;20051;-81
2024/01/25 00:16:05;;;;;;;33.15;19.13;;;7.80;99.90;;;;;;5048109;28;20036;-82
2024/01/25 00:18:30;;;;;;;33.90;19.23;;;7.80;99.90;;;;;;5030803;28;20134;-82
2024/01/25 00:20:56;;;;;;;45.05;19.75;;;7.70;99.90;;;;;;5067089;28;20084;-82
2024/01/25 00:23:22;;;;;;;39.65;19.85;;;7.70;99.90;;;;;;5049488;28;20055;-82
2024/01/25 00:25:48;;;;;;;38.78;21.10;;;7.70;99.90;;;;;;5052348;28;20488;-82
2024/01/25 00:28:13;;;;;;;38.58;25.73;;;7.70;99.90;;;;;;5031759;28;20041;-82
2024/01/25 00:30:40;;;;;;;39.78;19.95;;;7.70;99.90;;;;;;5054014;28;20051;-81
2024/01/25 00:33:05;;;;;;;38.45;24.80;;;7.80;99.90;;;;;;5062403;28;20044;-81
2024/01/25 00:35:31;;;;;;;36.55;19.10;;;7.80;99.90;;;;;;5059936;28;20120;-82
2024/01/25 00:37:58;;;;;;;41.60;21.20;;;7.70;99.90;;;;;;5063799;28;20047;-82
2024/01/25 00:40:24;;;;;;;45.10;22.23;;;7.60;99.90;;;;;;5059960;28;20412;-82
2024/01/25 00:42:56;;;;;;;42.25;22.02;;;7.60;99.90;;;;;;5052629;28;20036;-82
2024/01/25 00:45:23;;;;;;;42.97;21.45;;;7.50;99.90;;;;;;5052595;28;20043;-82
2024/01/25 00:47:49;;;;;;;36.35;32.95;;;7.50;99.90;;;;;;5031239;28;20061;-82
2024/01/25 00:50:20;;;;;;;1999.90;999.90;;;7.50;99.90;;;;;;5041457;28;20033;-82
2024/01/25 00:52:47;;;;;;;1999.90;999.90;;;7.50;99.90;;;;;;5037666;28;20115;-82
2024/01/25 00:55:13;;;;;;;1999.90;999.90;;;7.50;99.90;;;;;;5051667;28;20072;-82
2024/01/25 00:57:39;;;;;;;1999.90;999.90;;;7.40;99.90;;;;;;5049753;28;20048;-82
2024/01/25 01:00:06;;;;;;;1999.90;999.90;;;7.30;99.90;;;;;;5049057;28;20037;-81
2024/01/25 01:02:36;;;;;;;1999.90;999.90;;;7.30;99.90;;;;;;5034246;28;20048;-82
2024/01/25 01:05:02;;;;;;;1999.90;999.90;;;7.30;99.90;;;;;;5055779;28;20041;-81
2024/01/25 01:07:27;;;;;;;1999.90;999.90;;;7.30;99.90;;;;;;5069474;28;20541;-82
2024/01/25 01:09:53;;;;;;;1999.90;999.90;;;7.30;99.90;;;;;;5025785;28;20425;-81
2024/01/25 01:12:19;;;;;;;1999.90;999.90;;;7.30;99.90;;;;;;5052151;28;20043;-81
2024/01/25 01:14:45;;;;;;;1999.90;999.90;;;7.30;99.90;;;;;;5052206;28;20459;-82
2024/01/25 01:17:10;;;;;;;1999.90;999.90;;;7.20;99.90;;;;;;5034698;28;20059;-82
2024/01/25 01:19:36;;;;;;;1999.90;999.90;;;7.30;99.90;;;;;;5033838;28;20064;-81
2024/01/25 01:22:02;;;;;;;1999.90;999.90;;;7.20;99.90;;;;;;5046017;28;20049;-81
2024/01/25 01:24:27;;;;;;;1999.90;999.90;;;7.10;99.90;;;;;;5035066;28;20090;-81
2024/01/25 01:26:53;;;;;;;1999.90;999.90;;;7.10;99.90;;;;;;5049371;28;20098;-82
2024/01/25 01:29:19;;;;;;;1999.90;999.90;;;7.10;99.90;;;;;;5031139;28;20547;-82
2024/01/25 01:31:45;;;;;;;25.13;12.88;;;7.20;99.90;;;;;;5050902;28;20044;-82
2024/01/25 01:34:12;;;;;;;29.50;13.48;;;7.10;99.90;;;;;;5047912;28;20037;-82
2024/01/25 01:36:38;;;;;;;29.75;18.50;;;7.00;99.90;;;;;;5044739;28;20072;-82
2024/01/25 01:39:04;;;;;;;28.75;13.27;;;7.00;99.90;;;;;;5031746;28;20083;-82
2024/01/25 01:41:29;;;;;;;32.08;13.27;;;7.00;99.90;;;;;;5044878;28;20488;-82
2024/01/25 01:43:55;;;;;;;31.70;14.30;;;7.00;99.90;;;;;;5034586;28;20040;-82
2024/01/25 01:46:31;;;;;;;32.33;13.23;;;7.00;99.90;;;;;;5033039;28;20139;-82
2024/01/25 01:48:57;;;;;;;30.38;16.25;;;7.00;99.90;;;;;;5033929;28;20094;-81
2024/01/25 01:51:23;;;;;;;26.05;12.43;;;7.00;99.90;;;;;;5029181;28;20484;-82
2024/01/25 01:53:49;;;;;;;27.30;13.07;;;7.00;99.90;;;;;;5033920;28;20071;-82
2024/01/25 01:56:15;;;;;;;31.73;13.27;;;7.00;99.90;;;;;;5042525;28;20041;-81
2024/01/25 01:58:42;;;;;;;31.02;13.27;;;7.00;99.90;;;;;;5051773;28;20040;-82
2024/01/25 02:01:07;;;;;;;28.27;14.18;;;6.90;99.90;;;;;;5030346;28;20036;-82
2024/01/25 02:03:33;;;;;;;26.20;13.73;;;6.90;99.90;;;;;;5028367;28;20404;-82
2024/01/25 02:06:02;;;;;;;33.38;16.38;;;6.90;99.90;;;;;;5050500;28;20040;-82
2024/01/25 02:08:29;;;;;;;31.70;13.45;;;6.90;99.90;;;;;;5032164;28;20460;-82
2024/01/25 02:10:55;;;;;;;28.33;13.25;;;7.00;99.90;;;;;;5031478;28;20067;-82
2024/01/25 02:13:21;;;;;;;41.17;14.25;;;7.00;99.90;;;;;;5049471;28;20103;-81
2024/01/25 02:15:47;;;;;;;28.40;14.15;;;7.00;99.90;;;;;;5066545;28;20064;-82
2024/01/25 02:18:13;;;;;;;34.17;13.40;;;6.90;99.90;;;;;;5049957;28;20153;-82
2024/01/25 02:20:38;;;;;;;40.33;15.73;;;6.90;99.90;;;;;;5031732;28;20102;-81
2024/01/25 02:23:04;;;;;;;36.88;14.18;;;6.80;99.90;;;;;;5047244;28;20097;-82
2024/01/25 02:25:30;;;;;;;39.05;14.07;;;6.80;99.90;;;;;;5050762;28;20119;-82
2024/01/25 02:27:55;;;;;;;32.45;13.75;;;6.80;99.90;;;;;;5048385;28;20078;-82
2024/01/25 02:30:21;;;;;;;35.40;14.70;;;6.80;99.90;;;;;;5046202;28;20040;-82
2024/01/25 02:32:47;;;;;;;36.97;15.13;;;6.80;99.90;;;;;;5031360;28;20078;-82
2024/01/25 02:35:12;;;;;;;38.85;14.55;;;6.70;99.90;;;;;;5067689;28;20154;-82
2024/01/25 02:37:38;;;;;;;31.00;14.35;;;6.70;99.90;;;;;;5049119;28;20036;-82
2024/01/25 02:40:04;;;;;;;35.28;13.80;;;6.70;99.90;;;;;;5050718;28;20055;-82
2024/01/25 02:42:30;;;;;;;33.80;14.05;;;6.70;99.90;;;;;;5046414;28;20044;-82
2024/01/25 02:44:55;;;;;;;32.75;15.75;;;6.60;99.90;;;;;;5050062;28;20499;-82
2024/01/25 02:47:21;;;;;;;33.92;15.57;;;6.60;99.90;;;;;;5066957;28;20032;-82
2024/01/25 02:49:47;;;;;;;33.08;13.35;;;6.50;99.90;;;;;;5028752;28;20044;-82
2024/01/25 02:52:12;;;;;;;37.28;15.05;;;6.40;99.90;;;;;;5044593;28;20048;-82
2024/01/25 02:54:38;;;;;;;39.60;14.65;;;6.40;99.90;;;;;;5049157;28;20037;-82
2024/01/25 02:57:04;;;;;;;39.97;14.27;;;6.40;99.90;;;;;;5050280;28;20132;-82
2024/01/25 02:59:30;;;;;;;37.75;13.40;;;6.30;99.90;;;;;;5033358;28;20055;-82
2024/01/25 03:01:56;;;;;;;35.80;14.73;;;6.30;99.90;;;;;;5049841;28;20052;-82
2024/01/25 03:04:22;;;;;;;34.80;14.57;;;6.30;99.90;;;;;;5047386;28;20033;-82
2024/01/25 03:06:48;;;;;;;35.92;15.15;;;6.20;99.90;;;;;;5049634;28;20044;-82
2024/01/25 03:09:14;;;;;;;33.05;15.18;;;6.20;99.90;;;;;;5048244;28;20055;-82
2024/01/25 03:11:40;;;;;;;39.85;16.25;;;6.10;99.90;;;;;;5047802;28;20055;-82
2024/01/25 03:14:05;;;;;;;42.72;15.20;;;6.10;99.90;;;;;;5050490;28;20047;-82
2024/01/25 03:16:31;;;;;;;35.72;15.02;;;6.10;99.90;;;;;;5033922;28;20032;-82
2024/01/25 03:18:57;;;;;;;33.92;14.35;;;6.10;99.90;;;;;;5031341;28;20044;-82
2024/01/25 03:21:22;;;;;;;41.28;15.02;;;6.10;99.90;;;;;;5043682;28;20051;-82
2024/01/25 03:23:48;;;;;;;39.90;15.63;;;6.10;99.90;;;;;;5050460;28;20028;-82
2024/01/25 03:26:14;;;;;;;40.38;14.40;;;6.10;99.90;;;;;;5049980;28;20043;-82
2024/01/25 03:28:40;;;;;;;39.97;15.40;;;6.10;99.90;;;;;;5032004;28;20055;-82
2024/01/25 03:31:06;;;;;;;32.92;15.07;;;6.00;99.90;;;;;;5048527;28;20048;-82
2024/01/25 03:33:32;;;;;;;35.80;14.40;;;6.10;99.90;;;;;;5049195;28;20495;-83
2024/01/25 03:36:05;;;;;;;33.83;15.25;;;6.00;99.90;;;;;;5049678;28;20396;-82
2024/01/25 03:38:31;;;;;;;34.55;14.55;;;6.00;99.90;;;;;;5048934;28;20143;-83
2024/01/25 03:40:58;;;;;;;37.65;15.45;;;5.90;99.90;;;;;;5029529;28;20434;-82
2024/01/25 03:43:25;;;;;;;36.50;15.23;;;5.90;99.90;;;;;;5032304;28;20513;-82
2024/01/25 03:45:51;;;;;;;31.95;15.18;;;5.80;99.90;;;;;;5046217;28;20079;-82
2024/01/25 03:48:16;;;;;;;31.88;15.27;;;5.80;99.90;;;;;;5066447;28;20468;-82
2024/01/25 03:50:43;;;;;;;40.38;16.25;;;5.80;99.90;;;;;;5032619;28;20044;-82
2024/01/25 03:53:08;;;;;;;36.88;15.63;;;5.80;99.90;;;;;;5029988;28;20041;-82
2024/01/25 03:55:34;;;;;;;31.90;14.65;;;5.80;99.90;;;;;;5051652;28;20469;-82
2024/01/25 03:57:59;;;;;;;36.95;15.18;;;5.70;99.90;;;;;;5028743;28;20581;-82
2024/01/25 04:00:25;;;;;;;30.67;15.60;;;5.70;99.90;;;;;;5068477;28;20036;-82
2024/01/25 04:02:51;;;;;;;35.78;14.40;;;5.70;99.90;;;;;;5037010;28;20488;-82
2024/01/25 04:05:17;;;;;;;43.13;15.15;;;5.70;99.90;;;;;;5050543;28;20086;-82
2024/01/25 04:07:42;;;;;;;31.23;15.68;;;5.60;99.90;;;;;;5051123;28;20041;-83
2024/01/25 04:10:08;;;;;;;42.95;16.50;;;5.70;99.90;;;;;;5046614;28;20102;-82
2024/01/25 04:12:34;;;;;;;32.45;15.18;;;5.60;99.90;;;;;;5047268;28;20086;-82
2024/01/25 04:15:00;;;;;;;29.30;14.32;;;5.50;99.90;;;;;;5051373;28;20076;-82
2024/01/25 04:17:25;;;;;;;37.85;16.17;;;5.50;99.90;;;;;;5052660;28;20448;-82
2024/01/25 04:19:51;;;;;;;38.63;16.63;;;5.50;99.90;;;;;;5049544;28;20056;-82
2024/01/25 04:22:17;;;;;;;36.42;16.00;;;5.60;99.90;;;;;;5043526;28;20056;-82
2024/01/25 04:24:43;;;;;;;34.03;14.65;;;5.50;99.90;;;;;;5051140;28;20630;-82
2024/01/25 04:27:10;;;;;;;39.75;15.65;;;5.50;99.90;;;;;;5052848;28;20431;-83
2024/01/25 04:29:38;;;;;;;33.80;14.88;;;5.50;99.90;;;;;;5043396;28;20049;-83
2024/01/25 04:32:05;;;;;;;34.80;15.55;;;5.40;99.90;;;;;;5029101;28;20393;-82
2024/01/25 04:34:30;;;;;;;36.05;15.68;;;5.30;99.90;;;;;;5046900;28;20473;-82
2024/01/25 04:36:56;;;;;;;33.67;15.85;;;5.30;99.90;;;;;;5069775;28;20041;-83
2024/01/25 04:39:22;;;;;;;32.88;14.50;;;5.30;99.90;;;;;;5052646;28;20443;-83
2024/01/25 04:41:47;;;;;;;34.55;14.55;;;5.20;99.90;;;;;;5025424;28;20048;-82
2024/01/25 04:44:13;;;;;;;32.78;15.93;;;5.20;99.90;;;;;;5035746;28;20055;-82
2024/01/25 04:46:38;;;;;;;42.75;17.15;;;5.20;99.90;;;;;;5050775;28;20044;-82
2024/01/25 04:49:04;;;;;;;43.20;14.77;;;5.20;99.90;;;;;;5032466;28;20040;-82
2024/01/25 04:51:30;;;;;;;39.95;15.48;;;5.20;99.90;;;;;;5031676;28;20039;-82
2024/01/25 04:53:55;;;;;;;37.03;14.35;;;5.10;99.90;;;;;;5035872;28;20412;-82
2024/01/25 04:56:21;;;;;;;42.50;16.15;;;5.10;99.90;;;;;;5068519;28;20059;-82
2024/01/25 04:58:46;;;;;;;40.63;14.52;;;5.00;99.90;;;;;;5046756;28;20040;-82
2024/01/25 05:01:12;;;;;;;36.35;15.10;;;5.00;99.90;;;;;;5069965;28;20032;-82
2024/01/25 05:03:38;;;;;;;39.65;14.70;;;4.90;99.90;;;;;;5051328;28;20053;-83
2024/01/25 05:06:03;;;;;;;40.25;15.70;;;4.80;99.90;;;;;;5045541;28;20044;-82
2024/01/25 05:08:29;;;;;;;42.42;15.13;;;4.80;99.90;;;;;;5034265;28;20123;-82
2024/01/25 05:10:55;;;;;;;33.20;14.38;;;4.80;99.90;;;;;;5026334;28;20409;-82
2024/01/25 05:13:20;;;;;;;31.80;15.02;;;4.70;99.90;;;;;;5030238;28;20025;-83
2024/01/25 05:15:46;;;;;;;42.65;15.73;;;4.70;99.90;;;;;;5025526;28;20040;-82
2024/01/25 05:18:11;;;;;;;45.75;16.55;;;4.60;99.90;;;;;;5045577;28;20098;-82
2024/01/25 05:20:37;;;;;;;32.72;14.60;;;4.60;99.90;;;;;;5027944;28;20068;-82
2024/01/25 05:23:04;;;;;;;34.53;15.63;;;4.60;99.90;;;;;;5049145;28;20036;-82
2024/01/25 05:25:30;;;;;;;29.30;14.27;;;4.50;99.90;;;;;;5051002;28;20044;-82
2024/01/25 05:27:56;;;;;;;39.45;21.35;;;4.50;99.90;;;;;;5065774;28;20049;-82
2024/01/25 05:30:24;;;;;;;45.55;20.85;;;4.40;99.90;;;;;;5049367;28;20048;-83
2024/01/25 05:32:50;;;;;;;34.22;20.92;;;4.40;99.90;;;;;;5030314;28;20119;-83
2024/01/25 05:35:17;;;;;;;31.90;19.42;;;4.30;99.90;;;;;;5031304;28;20162;-83
2024/01/25 05:37:42;;;;;;;37.38;21.25;;;4.20;99.90;;;;;;5047775;28;20070;-83
2024/01/25 05:40:09;;;;;;;30.10;19.40;;;4.10;99.90;;;;;;5050317;28;20432;-83
2024/01/25 05:42:35;;;;;;;47.90;20.77;;;4.00;99.90;;;;;;5034059;28;20036;-83
2024/01/25 05:45:03;;;;;;;36.33;19.98;;;4.00;99.90;;;;;;5051344;28;20048;-82
2024/01/25 05:47:29;;;;;;;34.55;19.75;;;3.90;99.90;;;;;;5051218;28;20051;-82
2024/01/25 05:49:55;;;;;;;43.75;21.17;;;3.80;99.90;;;;;;5030413;28;20453;-82
2024/01/25 05:52:21;;;;;;;45.25;16.00;;;3.80;99.90;;;;;;5027907;28;20036;-82
2024/01/25 05:54:47;;;;;;;44.28;16.08;;;3.70;99.90;;;;;;5021554;28;20393;-82
2024/01/25 05:57:13;;;;;;;31.23;17.02;;;3.70;99.90;;;;;;5047807;28;20040;-82
2024/01/25 05:59:38;;;;;;;36.70;16.15;;;3.70;99.90;;;;;;5049567;28;20614;-82
2024/01/25 06:02:05;;;;;;;43.90;15.68;;;3.70;99.90;;;;;;5050086;28;20412;-82
2024/01/25 06:04:31;;;;;;;44.50;14.60;;;3.60;99.90;;;;;;5033173;28;20044;-83
2024/01/25 06:06:56;;;;;;;28.48;13.55;;;3.60;99.90;;;;;;5029897;28;20521;-82
2024/01/25 06:09:24;;;;;;;44.53;14.68;;;3.50;99.90;;;;;;5033118;28;20040;-82
2024/01/25 06:11:50;;;;;;;50.05;15.25;;;3.50;99.90;;;;;;5034400;28;20047;-82
2024/01/25 06:14:16;;;;;;;34.08;14.95;;;3.40;99.90;;;;;;5029864;28;20033;-82
2024/01/25 06:16:41;;;;;;;38.05;14.80;;;3.40;99.90;;;;;;5028408;28;20518;-82
2024/01/25 06:19:07;;;;;;;35.55;14.43;;;3.40;99.90;;;;;;5028220;28;20124;-83
2024/01/25 06:21:35;;;;;;;33.35;14.65;;;3.40;99.90;;;;;;5033977;28;20047;-82
2024/01/25 06:24:01;;;;;;;27.88;14.40;;;3.40;99.90;;;;;;5045437;28;20112;-82
2024/01/25 06:26:27;;;;;;;34.20;15.45;;;3.40;99.90;;;;;;5029279;28;20109;-82
2024/01/25 06:28:52;;;;;;;48.97;18.70;;;3.30;99.90;;;;;;5030718;28;20055;-82
2024/01/25 06:31:18;;;;;;;43.85;17.55;;;3.30;99.90;;;;;;5046443;28;20044;-83
2024/01/25 06:33:46;;;;;;;40.80;17.08;;;3.30;99.90;;;;;;5046102;28;20413;-82
2024/01/25 06:36:15;;;;;;;42.72;16.50;;;3.30;99.90;;;;;;5033377;28;20041;-82
2024/01/25 06:38:40;;;;;;;36.60;17.48;;;3.30;99.90;;;;;;5049931;28;20111;-82
2024/01/25 06:41:07;;;;;;;45.03;16.55;;;3.30;99.90;;;;;;5050421;28;20135;-82
2024/01/25 06:43:32;;;;;;;49.70;18.30;;;3.20;99.90;;;;;;5050232;28;20401;-82
2024/01/25 06:45:58;;;;;;;40.08;17.00;;;3.20;99.90;;;;;;5030962;28;20044;-82
2024/01/25 06:48:23;;;;;;;46.28;18.63;;;3.20;99.90;;;;;;5028629;28;20056;-82
2024/01/25 06:50:50;;;;;;;45.38;17.70;;;3.20;99.90;;;;;;5030860;28;20051;-82
2024/01/25 06:53:16;;;;;;;39.25;17.40;;;3.20;99.90;;;;;;5067148;28;20033;-83
2024/01/25 06:55:42;;;;;;;38.13;17.08;;;3.10;99.90;;;;;;5032826;28;20036;-83
2024/01/25 06:58:08;;;;;;;43.20;17.80;;;3.10;99.90;;;;;;5047808;28;20055;-83
2024/01/25 07:00:34;;;;;;;100.53;32.08;;;3.10;99.90;;;;;;5046296;28;20033;-82
2024/01/25 07:03:00;;;;;;;46.33;16.77;;;3.10;99.90;;;;;;5029766;28;20064;-83
2024/01/25 07:05:26;;;;;;;45.30;16.27;;;3.10;99.90;;;;;;5027243;28;20090;-82
2024/01/25 07:07:52;;;;;;;46.92;18.23;;;3.10;99.90;;;;;;5028280;28;20048;-82
2024/01/25 07:10:18;;;;;;;44.00;17.55;;;3.10;99.90;;;;;;5033153;28;20051;-82
2024/01/25 07:12:43;;;;;;;48.42;18.65;;;3.10;99.90;;;;;;5046396;28;20071;-82
2024/01/25 07:15:09;;;;;;;40.08;16.45;;;3.00;99.90;;;;;;5043586;28;20041;-83
2024/01/25 07:17:35;;;;;;;45.42;18.05;;;3.00;99.90;;;;;;5036542;28;20128;-83
2024/01/25 07:20:00;;;;;;;50.08;17.98;;;3.00;99.90;;;;;;5044476;28;20057;-82
2024/01/25 07:22:27;;;;;;;41.00;17.73;;;3.00;99.90;;;;;;5039719;28;20135;-82
2024/01/25 07:24:53;;;;;;;48.63;18.33;;;2.90;99.90;;;;;;5049362;28;20123;-82
2024/01/25 07:27:18;;;;;;;44.15;17.90;;;2.90;99.90;;;;;;5042573;28;20044;-82
2024/01/25 07:29:45;;;;;;;45.33;18.67;;;2.90;99.90;;;;;;5032659;28;20493;-83
2024/01/25 07:32:11;;;;;;;42.50;17.65;;;2.90;99.90;;;;;;5048230;28;20044;-83
2024/01/25 07:34:37;;;;;;;40.88;17.45;;;2.90;99.90;;;;;;5036073;28;20409;-83
2024/01/25 07:37:03;;;;;;;45.72;18.63;;;2.90;99.90;;;;;;5065044;28;20037;-82
2024/01/25 07:39:29;;;;;;;46.85;18.77;;;2.90;99.90;;;;;;5033785;28;20051;-83
2024/01/25 07:41:54;;;;;;;45.38;19.38;;;3.00;99.90;;;;;;5034028;28;20493;-83
2024/01/25 07:44:20;;;;;;;48.53;20.20;;;3.10;99.90;;;;;;5052599;28;20396;-83
2024/01/25 07:46:47;;;;;;;42.08;20.38;;;3.30;99.90;;;;;;5071724;28;20492;-82
2024/01/25 07:49:12;;;;;;;38.28;18.98;;;3.40;99.90;;;;;;5052272;28;20059;-83
2024/01/25 07:51:38;;;;;;;47.40;21.58;;;3.40;99.90;;;;;;5050869;28;20045;-82
2024/01/25 07:54:04;;;;;;;63.53;20.10;;;3.50;99.90;;;;;;5050502;28;20033;-83
2024/01/25 07:56:29;;;;;;;50.28;19.42;;;3.60;99.90;;;;;;5046643;28;20101;-83
2024/01/25 07:58:55;;;;;;;46.55;19.88;;;3.60;99.90;;;;;;5070609;28;20447;-83
2024/01/25 08:01:21;;;;;;;42.03;18.85;;;3.60;99.90;;;;;;5054044;28;20029;-83
2024/01/25 08:03:47;;;;;;;42.88;20.52;;;3.70;99.90;;;;;;5071085;28;20067;-83
2024/01/25 08:06:12;;;;;;;43.17;19.33;;;3.80;99.90;;;;;;5036632;28;20121;-83
2024/01/25 08:08:38;;;;;;;52.80;19.15;;;3.90;99.90;;;;;;5071598;28;20051;-82
2024/01/25 08:11:05;;;;;;;45.28;19.42;;;3.90;99.90;;;;;;5034963;28;20547;-83
2024/01/25 08:13:31;;;;;;;37.38;19.70;;;3.90;99.90;;;;;;5032592;28;20115;-83
2024/01/25 08:15:57;;;;;;;42.88;20.08;;;3.90;99.90;;;;;;5036108;28;20080;-83
2024/01/25 08:18:23;;;;;;;46.60;18.50;;;3.90;99.90;;;;;;5053352;28;20519;-83
2024/01/25 08:20:49;;;;;;;46.72;19.83;;;4.00;99.90;;;;;;5052298;28;20052;-83
2024/01/25 08:23:14;;;;;;;48.00;19.35;;;4.00;99.90;;;;;;5052453;28;20044;-82
2024/01/25 08:25:41;;;;;;;46.40;19.92;;;4.00;99.90;;;;;;5031830;28;20047;-83
2024/01/25 08:28:06;;;;;;;48.30;19.95;;;4.00;99.90;;;;;;5070165;28;20039;-83
2024/01/25 08:30:32;;;;;;;44.92;20.42;;;4.10;99.90;;;;;;5066473;28;20461;-82
2024/01/25 08:32:58;;;;;;;49.55;19.17;;;4.10;99.90;;;;;;5052205;28;20047;-83
2024/01/25 08:35:24;;;;;;;54.20;20.55;;;4.20;99.90;;;;;;5032255;28;20040;-83
2024/01/25 08:37:50;;;;;;;41.80;19.40;;;4.20;99.90;;;;;;5068351;28;20397;-83
2024/01/25 08:40:15;;;;;;;50.38;19.70;;;4.20;99.90;;;;;;5064337;28;20112;-83
2024/01/25 08:42:41;;;;;;;47.00;17.90;;;4.30;99.90;;;;;;5046562;28;20102;-83
2024/01/25 08:45:08;;;;;;;45.55;17.65;;;4.30;99.90;;;;;;5043370;28;20447;-83
2024/01/25 08:47:37;;;;;;;43.78;18.23;;;4.30;99.90;;;;;;5046168;28;20082;-83
2024/01/25 08:50:05;;;;;;;47.53;18.60;;;4.30;99.90;;;;;;5038349;28;20440;-82
2024/01/25 08:52:31;;;;;;;48.63;18.65;;;4.40;99.90;;;;;;5058784;28;20036;-82
2024/01/25 08:54:57;;;;;;;47.90;19.80;;;4.40;99.90;;;;;;5029268;28;20078;-83
2024/01/25 08:57:22;;;;;;;43.83;17.83;;;4.50;99.90;;;;;;5035686;28;20474;-83
2024/01/25 08:59:48;;;;;;;37.60;18.55;;;4.60;99.90;;;;;;5028475;28;20048;-83
2024/01/25 09:02:13;;;;;;;36.15;18.25;;;4.70;99.90;;;;;;5025313;28;20036;-82
2024/01/25 09:04:42;;;;;;;50.38;17.42;;;4.80;99.90;;;;;;5041218;28;20052;-83
2024/01/25 09:07:08;;;;;;;35.75;17.83;;;4.80;99.90;;;;;;5020978;28;20372;-83
2024/01/25 09:09:34;;;;;;;44.95;19.08;;;4.90;99.90;;;;;;5056187;28;20045;-83
2024/01/25 09:12:00;;;;;;;49.22;18.45;;;5.00;99.90;;;;;;5038269;28;20483;-82
2024/01/25 09:14:25;;;;;;;51.90;21.20;;;5.10;99.90;;;;;;5019675;28;20045;-83
2024/01/25 09:16:51;;;;;;;47.53;17.20;;;5.20;99.90;;;;;;5058216;28;20526;-83
2024/01/25 09:19:17;;;;;;;46.72;17.08;;;5.30;99.90;;;;;;5024823;28;20098;-82
2024/01/25 09:21:42;;;;;;;39.90;16.73;;;5.40;99.90;;;;;;5043787;28;20053;-82
2024/01/25 09:24:08;;;;;;;40.15;15.98;;;5.50;99.90;;;;;;5043602;28;20329;-82
2024/01/25 09:26:34;;;;;;;51.53;17.33;;;5.50;99.90;;;;;;5028936;28;20055;-82
2024/01/25 09:28:59;;;;;;;46.33;16.70;;;5.50;99.90;;;;;;5043394;28;20037;-82
2024/01/25 09:31:25;;;;;;;38.10;15.40;;;5.60;99.90;;;;;;5048375;28;20032;-83
2024/01/25 09:33:51;;;;;;;42.80;16.55;;;5.60;99.90;;;;;;5050788;28;20504;-83
2024/01/25 09:36:17;;;;;;;37.90;14.88;;;5.70;99.90;;;;;;5050210;28;20071;-82
2024/01/25 09:38:43;;;;;;;41.25;16.13;;;5.70;99.90;;;;;;5034055;28;20875;-82
2024/01/25 09:41:08;;;;;;;32.35;15.50;;;5.70;99.90;;;;;;5040527;28;20041;-82
2024/01/25 09:43:35;;;;;;;42.22;16.30;;;5.80;99.90;;;;;;5064898;28;20492;-82
2024/01/25 09:46:02;;;;;;;42.20;15.27;;;5.80;99.90;;;;;;5031241;28;20090;-83
2024/01/25 09:48:28;;;;;;;44.35;15.02;;;5.80;99.90;;;;;;5027829;28;20051;-82
2024/01/25 09:50:55;;;;;;;38.75;16.25;;;5.90;99.90;;;;;;5050912;28;20505;-83
2024/01/25 09:53:22;;;;;;;39.13;14.43;;;5.90;99.90;;;;;;5045885;28;20041;-83
2024/01/25 09:56:08;;;;;;;35.90;16.25;;;5.90;99.90;;;;;;5029397;28;20094;-82
2024/01/25 09:58:39;;;;;;;37.28;14.77;;;6.10;99.90;;;;;;5050639;28;20040;-82
2024/01/25 10:01:17;;;;;;;37.50;15.30;;;6.10;99.90;;;;;;5060994;28;20132;-82
2024/01/25 10:03:46;;;;;;;34.65;15.98;;;6.10;99.90;;;;;;5034688;28;20044;-82
2024/01/25 10:06:13;;;;;;;37.05;16.60;;;6.20;99.90;;;;;;5034627;28;20392;-82
2024/01/25 10:08:38;;;;;;;44.40;16.15;;;6.20;99.90;;;;;;5022989;28;20999;-82
2024/01/25 10:11:05;;;;;;;35.33;14.90;;;6.20;99.90;;;;;;5028499;28;20127;-82
2024/01/25 10:13:45;;;;;;;37.70;16.25;;;6.20;99.90;;;;;;5024073;28;20037;-82
2024/01/25 10:16:12;;;;;;;40.35;15.73;;;6.30;99.90;;;;;;5046842;28;20042;-82
2024/01/25 10:18:39;;;;;;;43.85;16.63;;;6.30;99.90;;;;;;5051003;28;20117;-82
2024/01/25 10:21:06;;;;;;;41.25;15.90;;;6.30;99.90;;;;;;5017244;28;20464;-82
2024/01/25 10:23:32;;;;;;;47.22;15.05;;;6.20;99.90;;;;;;5028055;28;20123;-82
2024/01/25 10:25:58;;;;;;;42.22;15.88;;;6.30;99.90;;;;;;5048244;28;20048;-82
2024/01/25 10:28:28;;;;;;;37.47;15.23;;;6.30;99.90;;;;;;5026386;28;20737;-82
2024/01/25 10:30:57;;;;;;;41.95;16.00;;;6.30;99.90;;;;;;5013982;28;20124;-82
2024/01/25 10:33:24;;;;;;;33.80;14.60;;;6.50;99.90;;;;;;5046407;28;20036;-82
2024/01/25 10:35:52;;;;;;;39.25;15.10;;;6.70;99.90;;;;;;5030134;28;20047;-82
2024/01/25 10:38:18;;;;;;;43.88;16.92;;;7.00;99.90;;;;;;5013618;28;20041;-82
2024/01/25 10:40:46;;;;;;;37.80;14.55;;;7.30;99.90;;;;;;5046790;28;20040;-82
2024/01/25 10:43:11;;;;;;;39.83;14.65;;;7.60;99.90;;;;;;5044077;28;20044;-82
2024/01/25 10:45:37;;;;;;;34.55;15.02;;;7.80;99.90;;;;;;5029868;28;20073;-82
2024/01/25 10:48:04;;;;;;;41.92;15.80;;;8.00;99.90;;;;;;5028437;28;20451;-82
2024/01/25 10:50:30;;;;;;;30.98;13.35;;;8.20;99.90;;;;;;5010624;28;21466;-82
2024/01/25 10:52:56;;;;;;;33.92;15.43;;;8.30;99.90;;;;;;5041283;28;20478;-82
2024/01/25 10:55:23;;;;;;;36.08;14.40;;;8.40;99.90;;;;;;5006428;28;20049;-82
2024/01/25 10:57:49;;;;;;;30.30;15.07;;;8.40;99.90;;;;;;5026717;28;20041;-82
2024/01/25 11:00:16;;;;;;;36.80;16.15;;;8.30;99.90;;;;;;5027892;28;20051;-82
2024/01/25 11:02:43;;;;;;;31.38;14.85;;;8.20;99.90;;;;;;5007911;28;20037;-82
2024/01/25 11:05:13;;;;;;;32.40;15.10;;;8.10;99.90;;;;;;5037089;28;20500;-82
2024/01/25 11:07:47;;;;;;;37.20;15.65;;;8.10;99.90;;;;;;5014666;28;20045;-82
2024/01/25 11:10:20;;;;;;;38.13;16.27;;;8.00;99.90;;;;;;5037840;28;20049;-82
2024/01/25 11:13:13;;;;;;;34.70;16.95;;;7.90;99.90;;;;;;5007481;28;20052;-82
2024/01/25 11:15:39;;;;;;;34.78;14.80;;;8.10;99.90;;;;;;5037565;28;20120;-82
2024/01/25 11:18:08;;;;;;;34.95;15.15;;;8.30;99.90;;;;;;5018564;28;20059;-82
2024/01/25 11:20:35;;;;;;;34.17;15.20;;;8.40;99.90;;;;;;5023386;28;20057;-82
2024/01/25 11:23:06;;;;;;;23.52;13.45;;;8.40;99.90;;;;;;5033515;28;20037;-81
2024/01/25 11:25:34;;;;;;;26.25;13.85;;;8.40;99.90;;;;;;5011140;28;20459;-82
2024/01/25 11:28:02;;;;;;;27.33;13.90;;;8.40;99.90;;;;;;5023647;28;20138;-81
2024/01/25 11:30:30;;;;;;;31.70;14.50;;;8.40;99.90;;;;;;5010088;28;20405;-81
2024/01/25 11:32:56;;;;;;;34.67;13.88;;;8.30;99.90;;;;;;5020873;28;20045;-81
2024/01/25 11:35:22;;;;;;;32.97;14.38;;;8.30;99.90;;;;;;5016660;28;20085;-81
2024/01/25 11:37:49;;;;;;;37.58;15.20;;;8.20;99.90;;;;;;5015267;28;20044;-81
2024/01/25 11:40:16;;;;;;;38.45;15.27;;;8.20;99.90;;;;;;5006541;28;20044;-81
2024/01/25 11:42:43;;;;;;;28.73;14.80;;;8.20;99.90;;;;;;5004108;28;20041;-81
2024/01/25 11:45:10;;;;;;;36.92;14.32;;;8.30;99.90;;;;;;5020456;28;20044;-81
2024/01/25 11:47:37;;;;;;;29.23;14.02;;;8.30;99.90;;;;;;5026611;28;20045;-81
2024/01/25 11:50:04;;;;;;;34.10;14.85;;;8.40;99.90;;;;;;5026537;28;20393;-81
2024/01/25 11:52:33;;;;;;;32.55;16.05;;;8.60;99.90;;;;;;5010360;28;20398;-82
2024/01/25 11:54:59;;;;;;;34.58;15.32;;;8.80;99.90;;;;;;5008212;28;20071;-81
2024/01/25 11:57:25;;;;;;;35.47;14.13;;;9.00;99.90;;;;;;5028262;28;20465;-82
2024/01/25 11:59:51;;;;;;;30.88;13.73;;;9.10;99.90;;;;;;5007898;28;20406;-81
2024/01/25 12:02:17;;;;;;;28.83;12.88;;;9.20;99.90;;;;;;5035429;28;20073;-82
2024/01/25 12:04:43;;;;;;;28.15;12.90;;;9.20;99.90;;;;;;5042242;28;20073;-82
2024/01/25 12:07:09;;;;;;;31.90;14.40;;;9.10;99.90;;;;;;5036752;28;20052;-82
2024/01/25 12:09:35;;;;;;;27.48;12.50;;;9.00;99.90;;;;;;5041509;28;20107;-82
2024/01/25 12:12:01;;;;;;;31.63;13.35;;;9.00;99.90;;;;;;5014208;28;20045;-82
2024/01/25 12:14:28;;;;;;;27.73;12.70;;;8.90;99.90;;;;;;5029078;28;20045;-82
2024/01/25 12:16:55;;;;;;;26.77;13.20;;;8.90;99.90;;;;;;5032600;28;20139;-82
2024/01/25 12:19:21;;;;;;;35.45;13.90;;;8.80;99.90;;;;;;5055291;28;20056;-81
2024/01/25 12:21:47;;;;;;;31.38;13.73;;;8.80;99.90;;;;;;5032968;28;20151;-81
2024/01/25 12:24:13;;;;;;;29.52;14.68;;;8.80;99.90;;;;;;5032437;28;20040;-81
2024/01/25 12:26:41;;;;;;;30.13;13.57;;;8.90;99.90;;;;;;5069129;28;20400;-81
2024/01/25 12:29:08;;;;;;;26.98;13.45;;;9.00;99.90;;;;;;5048799;28;20364;-81
2024/01/25 12:31:34;;;;;;;33.05;15.18;;;9.00;99.90;;;;;;5029904;28;20063;-81